createdAt,value
2022-12-04T00:01:07.942Z,19.10
2022-12-04T00:03:34.918Z,18.63
2022-12-04T00:06:06.314Z,19.37
2022-12-04T00:08:33.387Z,18.20
2022-12-04T00:11:00.462Z,17.77
2022-12-04T00:13:27.540Z,24.63
2022-12-04T00:15:54.615Z,18.20
2022-12-04T00:18:21.648Z,18.23
2022-12-04T00:20:49.146Z,18.13
2022-12-04T00:23:16.157Z,18.77
2022-12-04T00:25:43.199Z,17.97
2022-12-04T00:28:10.205Z,17.47
2022-12-04T00:30:41.130Z,17.87
2022-12-04T00:33:08.097Z,18.20
2022-12-04T00:35:35.089Z,18.33
2022-12-04T00:38:02.056Z,19.10
2022-12-04T00:40:29.092Z,18.97
2022-12-04T00:42:56.066Z,18.93
2022-12-04T00:45:23.143Z,18.17
2022-12-04T00:47:50.128Z,18.67
2022-12-04T00:50:17.141Z,18.57
2022-12-04T00:52:44.114Z,18.23
2022-12-04T00:55:11.107Z,18.90
2022-12-04T00:57:38.080Z,18.03
2022-12-04T01:00:05.713Z,19.20
2022-12-04T01:02:32.736Z,19.03
2022-12-04T01:05:01.421Z,18.63
2022-12-04T01:07:28.631Z,17.53
2022-12-04T01:09:55.974Z,18.13
2022-12-04T01:12:23.141Z,16.63
2022-12-04T01:14:50.132Z,17.27
2022-12-04T01:17:17.171Z,19.53
2022-12-04T01:19:44.150Z,18.10
2022-12-04T01:22:11.767Z,17.57
2022-12-04T01:24:38.760Z,19.27
2022-12-04T01:27:05.735Z,18.77
2022-12-04T01:29:32.714Z,18.93
2022-12-04T01:31:59.794Z,19.50
2022-12-04T01:34:26.853Z,17.63
2022-12-04T01:36:53.819Z,18.77
2022-12-04T01:39:20.814Z,19.23
2022-12-04T01:41:47.790Z,20.47
2022-12-04T01:44:20.600Z,19.17
2022-12-04T01:46:50.904Z,18.30
2022-12-04T01:49:20.157Z,18.37
2022-12-04T01:51:50.269Z,18.17
2022-12-04T01:54:19.802Z,18.57
2022-12-04T01:56:51.536Z,18.57
2022-12-04T01:59:20.098Z,18.30
2022-12-04T02:01:50.782Z,18.43
2022-12-04T02:04:17.853Z,18.87
2022-12-04T02:06:44.818Z,18.23
2022-12-04T02:09:11.958Z,22.88
2022-12-04T02:11:43.298Z,18.07
2022-12-04T02:14:21.480Z,17.97
2022-12-04T02:16:48.489Z,17.33
2022-12-04T02:19:34.192Z,19.00
2022-12-04T02:22:02.801Z,18.03
2022-12-04T02:24:33.037Z,17.67
2022-12-04T02:27:04.413Z,20.47
2022-12-04T02:29:45.889Z,19.87
2022-12-04T02:32:12.832Z,17.90
2022-12-04T02:34:46.019Z,18.30
2022-12-04T02:37:17.598Z,18.57
2022-12-04T02:39:47.918Z,18.33
2022-12-04T02:42:17.540Z,19.33
2022-12-04T02:44:56.524Z,19.60
2022-12-04T02:47:24.578Z,19.37
2022-12-04T02:49:58.283Z,18.53
2022-12-04T02:52:29.010Z,19.93
2022-12-04T02:54:58.010Z,19.37
2022-12-04T02:57:30.675Z,21.40
2022-12-04T02:59:58.561Z,19.37
2022-12-04T03:02:38.656Z,18.83
2022-12-04T03:05:08.714Z,20.17
2022-12-04T03:07:39.639Z,19.97
2022-12-04T03:10:10.902Z,20.33
2022-12-04T03:12:43.859Z,20.43
2022-12-04T03:15:22.712Z,19.73
2022-12-04T03:17:55.608Z,20.53
2022-12-04T03:20:24.034Z,21.17
2022-12-04T03:22:54.268Z,20.33
2022-12-04T03:25:25.004Z,20.33
2022-12-04T03:27:57.250Z,20.40
2022-12-04T03:30:24.979Z,21.07
2022-12-04T03:32:54.953Z,20.40
2022-12-04T03:35:39.849Z,19.70
2022-12-04T03:38:25.566Z,19.83
2022-12-04T03:40:57.156Z,20.33
2022-12-04T03:43:28.487Z,20.83
2022-12-04T03:45:59.838Z,20.03
2022-12-04T03:48:48.525Z,20.73
2022-12-04T03:51:20.307Z,20.63
2022-12-04T03:53:53.245Z,20.10
2022-12-04T03:56:25.274Z,20.23
2022-12-04T03:58:55.900Z,21.43
2022-12-04T04:01:26.467Z,21.43
2022-12-04T04:03:55.604Z,21.30
2022-12-04T04:06:34.141Z,21.53
2022-12-04T04:09:04.813Z,22.67
2022-12-04T04:11:34.821Z,20.77
2022-12-04T04:14:26.671Z,21.13
2022-12-04T04:17:18.652Z,21.47
2022-12-04T04:20:07.114Z,20.80
2022-12-04T04:22:56.161Z,21.90
2022-12-04T04:25:25.539Z,20.73
2022-12-04T04:27:53.492Z,21.57
2022-12-04T04:30:20.830Z,21.07
2022-12-04T04:32:58.897Z,21.10
2022-12-04T04:35:42.389Z,21.17
2022-12-04T04:38:28.239Z,21.10
2022-12-04T04:40:58.684Z,20.60
2022-12-04T04:43:28.385Z,19.60
2022-12-04T04:45:59.484Z,20.13
2022-12-04T04:48:28.026Z,19.60
2022-12-04T04:50:55.129Z,20.00
2022-12-04T04:53:23.744Z,20.23
2022-12-04T04:55:50.801Z,20.73
2022-12-04T04:58:18.833Z,20.20
2022-12-04T05:00:51.335Z,21.20
2022-12-04T05:03:18.388Z,20.23
2022-12-04T05:05:45.423Z,19.97
2022-12-04T05:08:12.541Z,20.00
2022-12-04T05:10:39.574Z,20.80
2022-12-04T05:13:06.547Z,24.52
2022-12-04T05:15:33.527Z,21.77
2022-12-04T05:18:00.487Z,20.00
2022-12-04T05:20:27.463Z,21.10
2022-12-04T05:22:54.430Z,20.63
2022-12-04T05:25:21.418Z,20.60
2022-12-04T05:27:48.372Z,20.20
2022-12-04T05:30:15.405Z,21.37
2022-12-04T05:32:42.767Z,20.13
2022-12-04T05:35:11.509Z,19.63
2022-12-04T05:37:39.794Z,19.10
2022-12-04T05:40:07.650Z,20.83
2022-12-04T05:42:34.734Z,20.17
2022-12-04T05:45:01.876Z,20.33
2022-12-04T05:47:28.842Z,20.03
2022-12-04T05:49:56.005Z,21.50
2022-12-04T05:52:23.199Z,20.60
2022-12-04T05:54:50.167Z,25.15
2022-12-04T05:57:17.131Z,20.40
2022-12-04T05:59:44.092Z,20.63
2022-12-04T06:02:11.109Z,18.57
2022-12-04T06:04:38.602Z,19.07
2022-12-04T06:07:05.598Z,19.50
2022-12-04T06:09:32.604Z,19.30
2022-12-04T06:11:59.883Z,18.63
2022-12-04T06:14:26.904Z,19.30
2022-12-04T06:16:53.915Z,20.23
2022-12-04T06:19:21.350Z,20.43
2022-12-04T06:21:49.795Z,20.07
2022-12-04T06:24:18.295Z,20.23
2022-12-04T06:27:10.966Z,20.77
2022-12-04T06:29:32.516Z,25.17
2022-12-04T06:31:59.611Z,22.50
2022-12-04T06:34:26.664Z,19.53
2022-12-04T06:36:53.630Z,20.10
2022-12-04T06:39:20.609Z,20.37
2022-12-04T06:41:47.785Z,20.37
2022-12-04T06:44:17.938Z,20.10
2022-12-04T06:46:47.197Z,19.73
2022-12-04T06:49:14.765Z,19.67
2022-12-04T06:51:41.765Z,19.17
2022-12-04T06:54:10.208Z,19.93
2022-12-04T06:56:37.259Z,20.03
2022-12-04T06:59:04.780Z,20.07
2022-12-04T07:01:32.646Z,20.23
2022-12-04T07:04:01.081Z,19.43
2022-12-04T07:06:29.287Z,18.53
2022-12-04T07:08:58.874Z,23.45
2022-12-04T07:11:26.111Z,20.80
2022-12-04T07:13:53.112Z,20.33
2022-12-04T07:16:21.051Z,20.80
2022-12-04T07:18:53.535Z,19.30
2022-12-04T07:21:21.730Z,20.17
2022-12-04T07:23:52.786Z,20.23
2022-12-04T07:26:20.081Z,19.50
2022-12-04T07:28:47.103Z,19.57
2022-12-04T07:31:15.805Z,18.97
2022-12-04T07:33:42.909Z,18.23
2022-12-04T07:36:12.157Z,18.67
2022-12-04T07:38:39.173Z,19.53
2022-12-04T07:41:06.850Z,20.13
2022-12-04T07:43:34.493Z,23.58
2022-12-04T07:46:09.325Z,20.03
2022-12-04T07:48:36.336Z,18.50
2022-12-04T07:51:04.309Z,19.40
2022-12-04T07:53:31.353Z,18.00
2022-12-04T07:55:58.365Z,18.73
2022-12-04T07:58:25.338Z,19.70
2022-12-04T08:00:52.383Z,19.37
2022-12-04T08:03:19.412Z,21.17
2022-12-04T08:05:46.393Z,20.17
2022-12-04T08:08:13.431Z,19.97
2022-12-04T08:10:40.862Z,20.30
2022-12-04T08:13:07.821Z,20.77
2022-12-04T08:15:35.285Z,21.27
2022-12-04T08:18:02.308Z,22.13
2022-12-04T08:20:29.336Z,21.30
2022-12-04T08:22:56.378Z,21.25
2022-12-04T08:25:23.463Z,22.10
2022-12-04T08:27:50.498Z,21.03
2022-12-04T08:30:17.645Z,22.10
2022-12-04T08:32:44.896Z,23.77
2022-12-04T08:35:12.002Z,21.10
2022-12-04T08:37:38.989Z,20.87
2022-12-04T08:40:06.331Z,22.63
2022-12-04T08:42:33.289Z,21.43
2022-12-04T08:45:00.267Z,21.97
2022-12-04T08:47:27.277Z,21.77
2022-12-04T08:49:54.502Z,21.00
2022-12-04T08:52:21.690Z,21.13
2022-12-04T08:54:50.609Z,20.63
2022-12-04T08:57:17.581Z,21.60
2022-12-04T08:59:44.567Z,22.50
2022-12-04T09:02:12.901Z,22.00
2022-12-04T09:04:40.217Z,21.80
2022-12-04T09:07:07.277Z,23.37
2022-12-04T09:09:34.271Z,20.93
2022-12-04T09:12:01.278Z,21.50
2022-12-04T09:14:28.252Z,20.77
2022-12-04T09:16:55.260Z,22.70
2022-12-04T09:19:22.415Z,20.77
2022-12-04T09:21:49.428Z,20.53
2022-12-04T09:24:16.397Z,21.23
2022-12-04T09:26:43.570Z,21.70
2022-12-04T09:29:12.030Z,20.30
2022-12-04T09:31:39.081Z,19.67
2022-12-04T09:34:06.141Z,19.47
2022-12-04T09:36:33.128Z,19.80
2022-12-04T09:39:00.153Z,19.48
2022-12-04T09:41:40.790Z,19.33
2022-12-04T09:44:26.310Z,19.07
2022-12-04T09:47:04.106Z,19.23
2022-12-04T09:49:49.228Z,19.80
2022-12-04T09:52:34.826Z,19.23
2022-12-04T09:55:03.373Z,19.93
2022-12-04T09:57:39.229Z,18.90
2022-12-04T10:00:06.733Z,19.40
2022-12-04T10:02:36.658Z,20.47
2022-12-04T10:05:03.966Z,19.10
2022-12-04T10:07:37.422Z,18.73
2022-12-04T10:10:13.425Z,20.00
2022-12-04T10:12:58.987Z,17.80
2022-12-04T10:15:44.773Z,26.83
2022-12-04T10:18:36.275Z,20.10
2022-12-04T10:21:13.761Z,18.97
2022-12-04T10:23:43.537Z,18.77
2022-12-04T10:26:13.893Z,18.80
2022-12-04T10:28:44.218Z,19.30
2022-12-04T10:31:15.195Z,17.57
2022-12-04T10:33:46.232Z,19.63
2022-12-04T10:36:15.125Z,18.47
2022-12-04T10:38:44.897Z,18.20
2022-12-04T10:41:30.347Z,19.20
2022-12-04T10:43:57.722Z,18.43
2022-12-04T10:46:26.103Z,17.80
2022-12-04T10:48:55.346Z,20.43
2022-12-04T10:51:22.984Z,20.00
2022-12-04T10:53:50.404Z,19.50
2022-12-04T10:56:19.201Z,19.83
2022-12-04T10:59:05.670Z,17.97
2022-12-04T11:01:34.111Z,17.77
2022-12-04T11:04:01.202Z,18.43
2022-12-04T11:06:28.503Z,18.20
2022-12-04T11:08:55.786Z,18.57
2022-12-04T11:11:31.412Z,18.93
2022-12-04T11:14:14.168Z,18.77
2022-12-04T11:16:44.555Z,16.80
2022-12-04T11:19:23.851Z,17.87
2022-12-04T11:21:51.209Z,18.20
2022-12-04T11:24:23.401Z,17.40
2022-12-04T11:26:51.113Z,17.60
2022-12-04T11:29:20.202Z,17.60
2022-12-04T11:31:52.343Z,16.87
2022-12-04T11:34:21.961Z,16.90
2022-12-04T11:36:56.547Z,16.13
2022-12-04T11:39:26.724Z,18.37
2022-12-04T11:42:01.098Z,17.17
2022-12-04T11:44:29.663Z,17.47
2022-12-04T11:46:58.349Z,16.70
2022-12-04T11:49:27.046Z,16.83
2022-12-04T11:51:54.024Z,16.50
2022-12-04T11:54:26.753Z,17.00
2022-12-04T11:57:13.978Z,16.97
2022-12-04T11:59:46.885Z,17.90
2022-12-04T12:02:19.693Z,17.60
2022-12-04T12:05:02.099Z,17.93
2022-12-04T12:07:55.303Z,17.67
2022-12-04T12:10:32.000Z,17.90
2022-12-04T12:13:06.290Z,22.00
2022-12-04T12:15:44.838Z,18.13
2022-12-04T12:18:22.561Z,18.07
2022-12-04T12:21:05.333Z,18.30
2022-12-04T12:23:50.846Z,17.10
2022-12-04T12:26:19.067Z,16.67
2022-12-04T12:28:52.106Z,16.03
2022-12-04T12:31:21.888Z,16.07
2022-12-04T12:33:57.809Z,16.20
2022-12-04T12:36:25.723Z,16.67
2022-12-04T12:39:00.423Z,16.33
2022-12-04T12:41:31.107Z,15.23
2022-12-04T12:44:08.252Z,15.90
2022-12-04T12:46:36.469Z,15.17
2022-12-04T12:49:06.195Z,14.67
2022-12-04T12:51:39.295Z,16.13
2022-12-04T12:54:25.228Z,14.13
2022-12-04T12:56:54.365Z,13.77
2022-12-04T12:59:23.074Z,13.43
2022-12-04T13:02:02.534Z,16.07
2022-12-04T13:04:29.625Z,14.53
2022-12-04T13:07:15.419Z,14.57
2022-12-04T13:09:43.513Z,14.50
2022-12-04T13:12:13.147Z,15.43
2022-12-04T13:14:43.438Z,14.60
2022-12-04T13:17:19.158Z,14.73
2022-12-04T13:19:54.564Z,14.47
2022-12-04T13:22:30.155Z,16.07
2022-12-04T13:25:04.057Z,14.70
2022-12-04T13:27:45.855Z,15.23
2022-12-04T13:30:16.523Z,14.20
2022-12-04T13:32:55.551Z,18.70
2022-12-04T13:35:34.606Z,15.13
2022-12-04T13:38:17.169Z,15.43
2022-12-04T13:40:47.648Z,14.13
2022-12-04T13:43:23.719Z,13.93
2022-12-04T13:45:52.064Z,14.97
2022-12-04T13:48:37.768Z,14.47
2022-12-04T13:51:23.789Z,14.87
2022-12-04T13:54:01.352Z,14.13
2022-12-04T13:56:29.303Z,15.30
2022-12-04T13:59:07.054Z,14.27
2022-12-04T14:01:41.677Z,15.37
2022-12-04T14:04:08.900Z,15.30
2022-12-04T14:06:39.222Z,15.10
2022-12-04T14:09:20.154Z,14.13
2022-12-04T14:11:48.290Z,18.17
2022-12-04T14:14:21.164Z,16.67
2022-12-04T14:16:48.938Z,15.17
2022-12-04T14:19:36.192Z,15.80
2022-12-04T14:22:03.536Z,16.13
2022-12-04T14:24:32.168Z,15.87
2022-12-04T14:27:14.839Z,15.93
2022-12-04T14:29:48.130Z,14.93
2022-12-04T14:32:17.065Z,15.90
2022-12-04T14:34:44.794Z,16.67
2022-12-04T14:37:19.389Z,15.77
2022-12-04T14:39:47.622Z,14.50
2022-12-04T14:42:15.753Z,15.00
2022-12-04T14:44:44.462Z,15.10
2022-12-04T14:47:30.568Z,16.13
2022-12-04T14:50:10.223Z,15.13
2022-12-04T14:52:48.766Z,20.60
2022-12-04T14:55:27.245Z,17.57
2022-12-04T14:58:24.515Z,17.20
2022-12-04T15:00:53.021Z,17.73
2022-12-04T15:03:20.131Z,16.07
2022-12-04T15:05:47.352Z,17.30
2022-12-04T15:08:15.155Z,16.47
2022-12-04T15:11:07.996Z,18.83
2022-12-04T15:13:37.356Z,23.10
2022-12-04T15:16:24.923Z,15.63
2022-12-04T15:18:59.321Z,17.00
2022-12-04T15:21:31.113Z,15.90
2022-12-04T15:23:59.094Z,16.03
2022-12-04T15:26:26.808Z,16.40
2022-12-04T15:28:58.845Z,16.33
2022-12-04T15:31:28.628Z,20.38
2022-12-04T15:33:59.484Z,17.17
2022-12-04T15:36:44.803Z,17.57
2022-12-04T15:39:17.856Z,17.90
2022-12-04T15:41:44.844Z,15.83
2022-12-04T15:44:31.422Z,17.40
2022-12-04T15:46:59.826Z,17.47
2022-12-04T15:49:33.636Z,16.50
2022-12-04T15:52:05.913Z,18.03
2022-12-04T15:54:36.022Z,17.40
2022-12-04T15:57:07.277Z,19.20
2022-12-04T15:59:36.466Z,18.33
2022-12-04T16:02:06.715Z,17.27
2022-12-04T16:04:35.620Z,19.80
2022-12-04T16:07:02.877Z,24.48
2022-12-04T16:09:30.410Z,19.20
2022-12-04T16:11:58.627Z,18.97
2022-12-04T16:14:25.716Z,17.67
2022-12-04T16:16:53.425Z,19.20
2022-12-04T16:19:27.758Z,19.20
2022-12-04T16:21:55.076Z,18.63
2022-12-04T16:24:22.263Z,19.07
2022-12-04T16:26:53.059Z,20.70
2022-12-04T16:29:20.082Z,20.13
2022-12-04T16:31:47.128Z,20.93
2022-12-04T16:34:14.257Z,20.63
2022-12-04T16:36:41.758Z,21.23
2022-12-04T16:39:08.826Z,21.40
2022-12-04T16:41:35.880Z,21.90
2022-12-04T16:44:03.304Z,22.07
2022-12-04T16:46:30.519Z,22.47
2022-12-04T16:48:59.505Z,31.98
2022-12-04T16:51:29.892Z,25.93
2022-12-04T16:53:56.878Z,25.93
2022-12-04T16:56:23.952Z,25.13
2022-12-04T16:58:50.991Z,25.90
2022-12-04T17:01:18.107Z,25.20
2022-12-04T17:03:45.195Z,27.80
2022-12-04T17:06:12.189Z,27.50
2022-12-04T17:08:39.172Z,25.17
2022-12-04T17:11:06.241Z,25.40
2022-12-04T17:13:33.206Z,27.43
2022-12-04T17:16:00.223Z,26.77
2022-12-04T17:18:27.271Z,25.57
2022-12-04T17:20:54.242Z,26.80
2022-12-04T17:23:21.244Z,28.27
2022-12-04T17:25:48.274Z,28.20
2022-12-04T17:28:15.276Z,29.65
2022-12-04T17:30:44.897Z,26.20
2022-12-04T17:33:11.877Z,24.40
2022-12-04T17:35:42.249Z,24.37
2022-12-04T17:38:09.385Z,25.17
2022-12-04T17:40:36.373Z,26.17
2022-12-04T17:43:03.689Z,24.63
2022-12-04T17:45:30.704Z,22.20
2022-12-04T17:47:57.673Z,24.47
2022-12-04T17:50:24.661Z,24.87
2022-12-04T17:52:51.643Z,24.57
2022-12-04T17:55:18.628Z,26.10
2022-12-04T17:57:45.636Z,23.73
2022-12-04T18:00:12.814Z,25.07
2022-12-04T18:02:41.500Z,24.80
2022-12-04T18:05:09.154Z,24.60
2022-12-04T18:07:36.229Z,23.58
2022-12-04T18:10:03.373Z,26.13
2022-12-04T18:12:30.353Z,23.80
2022-12-04T18:14:57.341Z,22.97
2022-12-04T18:17:24.335Z,22.97
2022-12-04T18:19:51.327Z,22.07
2022-12-04T18:22:18.346Z,21.23
2022-12-04T18:24:45.410Z,21.10
2022-12-04T18:27:12.389Z,22.27
2022-12-04T18:29:39.413Z,23.20
2022-12-04T18:32:06.918Z,22.73
2022-12-04T18:34:33.981Z,22.57
2022-12-04T18:37:01.087Z,23.73
2022-12-04T18:39:28.147Z,26.23
2022-12-04T18:41:58.726Z,26.67
2022-12-04T18:44:26.162Z,22.37
2022-12-04T18:46:53.409Z,22.17
2022-12-04T18:49:20.388Z,29.88
2022-12-04T18:51:49.859Z,25.50
2022-12-04T18:54:18.781Z,23.20
2022-12-04T18:56:45.909Z,21.63
2022-12-04T18:59:14.450Z,20.50
2022-12-04T19:01:41.673Z,20.83
2022-12-04T19:04:09.846Z,21.30
2022-12-04T19:06:41.141Z,20.60
2022-12-04T19:09:09.816Z,21.90
2022-12-04T19:11:37.221Z,22.27
2022-12-04T19:14:10.300Z,21.63
2022-12-04T19:16:43.573Z,20.20
2022-12-04T19:19:11.888Z,22.83
2022-12-04T19:21:39.026Z,21.40
2022-12-04T19:24:06.612Z,21.70
2022-12-04T19:26:34.344Z,20.70
2022-12-04T19:29:02.264Z,26.63
2022-12-04T19:31:30.757Z,22.20
2022-12-04T19:33:58.197Z,21.83
2022-12-04T19:36:26.253Z,20.40
2022-12-04T19:38:56.084Z,19.67
2022-12-04T19:41:25.573Z,33.40
2022-12-04T19:43:53.317Z,22.33
2022-12-04T19:46:22.360Z,29.03
2022-12-04T19:48:50.121Z,38.43
2022-12-04T19:51:18.399Z,18.87
2022-12-04T19:53:45.669Z,17.47
2022-12-04T19:56:17.381Z,18.70
2022-12-04T19:58:44.520Z,20.13
2022-12-04T20:01:15.011Z,18.43
2022-12-04T20:03:42.210Z,21.37
2022-12-04T20:06:10.813Z,21.47
2022-12-04T20:08:37.944Z,24.13
2022-12-04T20:11:18.661Z,19.33
2022-12-04T20:13:49.429Z,20.83
2022-12-04T20:16:18.242Z,18.47
2022-12-04T20:18:45.298Z,18.87
2022-12-04T20:21:13.209Z,19.33
2022-12-04T20:23:40.750Z,18.73
2022-12-04T20:26:08.931Z,19.20
2022-12-04T20:28:36.352Z,18.67
2022-12-04T20:31:13.030Z,20.10
2022-12-04T20:33:41.086Z,20.27
2022-12-04T20:36:08.677Z,19.23
2022-12-04T20:38:35.819Z,20.50
2022-12-04T20:41:03.798Z,20.27
2022-12-04T20:43:30.835Z,20.43
2022-12-04T20:45:57.803Z,22.90
2022-12-04T20:48:24.874Z,26.33
2022-12-04T20:50:51.968Z,20.10
2022-12-04T20:53:19.113Z,20.40
2022-12-04T20:55:56.486Z,20.20
2022-12-04T20:58:23.835Z,20.27
2022-12-04T21:00:50.816Z,21.37
2022-12-04T21:03:17.786Z,21.20
2022-12-04T21:05:50.669Z,21.07
2022-12-04T21:08:37.606Z,20.03
2022-12-04T21:11:04.589Z,19.43
2022-12-04T21:13:50.594Z,20.13
2022-12-04T21:16:17.663Z,19.90
2022-12-04T21:18:44.706Z,20.37
2022-12-04T21:21:11.997Z,21.17
2022-12-04T21:23:39.030Z,28.55
2022-12-04T21:26:06.074Z,21.10
2022-12-04T21:28:33.061Z,19.73
2022-12-04T21:31:03.880Z,22.13
2022-12-04T21:33:32.502Z,22.00
2022-12-04T21:36:06.841Z,21.70
2022-12-04T21:38:34.703Z,20.13
2022-12-04T21:41:02.042Z,19.77
2022-12-04T21:43:29.635Z,20.93
2022-12-04T21:45:57.601Z,21.57
2022-12-04T21:48:24.641Z,21.43
2022-12-04T21:50:51.626Z,19.83
2022-12-04T21:53:18.577Z,21.33
2022-12-04T21:55:49.346Z,20.60
2022-12-04T21:58:16.326Z,21.37
2022-12-04T22:00:43.403Z,20.43
2022-12-04T22:03:13.216Z,21.80
2022-12-04T22:05:40.762Z,21.10
2022-12-04T22:08:08.230Z,20.17
2022-12-04T22:10:40.033Z,20.23
2022-12-04T22:13:07.024Z,19.80
2022-12-04T22:15:37.108Z,19.70
2022-12-04T22:18:04.196Z,21.63
2022-12-04T22:20:31.174Z,19.70
2022-12-04T22:22:58.172Z,19.70
2022-12-04T22:25:25.161Z,19.87
2022-12-04T22:27:53.672Z,19.83
2022-12-04T22:30:20.947Z,20.80
2022-12-04T22:32:47.962Z,21.27
2022-12-04T22:35:15.044Z,22.20
2022-12-04T22:37:44.512Z,20.80
2022-12-04T22:40:12.580Z,26.92
2022-12-04T22:42:39.545Z,21.97
2022-12-04T22:45:06.725Z,20.87
2022-12-04T22:47:33.690Z,20.33
2022-12-04T22:50:00.666Z,20.43
2022-12-04T22:52:30.504Z,19.57
2022-12-04T22:54:57.525Z,18.83
2022-12-04T22:57:24.682Z,17.83
2022-12-04T22:59:51.714Z,18.33
2022-12-04T23:02:20.058Z,16.27
2022-12-04T23:04:47.106Z,15.97
2022-12-04T23:07:14.270Z,15.67
2022-12-04T23:09:41.312Z,14.93
2022-12-04T23:12:08.383Z,15.63
2022-12-04T23:14:36.732Z,14.17
2022-12-04T23:17:03.857Z,15.20
2022-12-04T23:19:31.241Z,14.67
2022-12-04T23:21:58.299Z,15.27
2022-12-04T23:24:25.861Z,15.20
2022-12-04T23:26:52.834Z,14.17
2022-12-04T23:32:06.870Z,13.97
2022-12-04T23:34:33.955Z,13.67
2022-12-04T23:37:00.955Z,14.90
2022-12-04T23:39:27.961Z,13.90
2022-12-04T23:41:54.918Z,13.33
2022-12-04T23:44:21.943Z,12.50
2022-12-04T23:46:48.983Z,13.57
2022-12-04T23:49:16.021Z,12.83
2022-12-04T23:51:42.978Z,12.80
2022-12-04T23:54:11.138Z,15.57
2022-12-04T23:56:38.130Z,14.93
2022-12-04T23:59:05.115Z,13.83
